Time;durP1;ratioP1;P1;durP2;ratioP2;P2;SDS_P1;SDS_P2;PMS_P1;PMS_P2;Temp;Humidity;BMP_temperature;BMP_pressure;BME280_temperature;BME280_humidity;BME280_pressure;Samples;Min_cycle;Max_cycle;Signal;HPM_P1;HPM_P2
2022/07/04 00:01:01;;;;;;;5.53;4.10;;;;;;;26.87;51.12;94889.66;4915054;29;20214;-74
2022/07/04 00:03:28;;;;;;;4.80;3.88;;;;;;;26.82;50.85;94890.34;4931631;29;20199;-76
2022/07/04 00:05:54;;;;;;;4.25;3.83;;;;;;;26.67;50.86;94874.31;4934040;29;20218;-74
2022/07/04 00:08:23;;;;;;;4.40;4.00;;;;;;;26.81;50.60;94893.97;4933710;29;20203;-85
2022/07/04 00:10:49;;;;;;;4.38;3.88;;;;;;;26.66;51.02;94883.22;4933661;29;20777;-85
2022/07/04 00:13:16;;;;;;;4.80;3.83;;;;;;;26.69;51.18;94890.63;4933826;29;20194;-82
2022/07/04 00:15:43;;;;;;;5.10;3.63;;;;;;;26.75;50.85;94900.97;4934002;29;20191;-74
2022/07/04 00:18:10;;;;;;;4.03;3.72;;;;;;;26.68;51.15;94881.94;4933919;29;20633;-74
2022/07/04 00:20:37;;;;;;;4.07;3.30;;;;;;;26.74;51.16;94891.50;4934132;29;20206;-75
2022/07/04 00:23:03;;;;;;;4.15;3.75;;;;;;;26.70;51.09;94895.63;4933704;29;20195;-74
2022/07/04 00:25:31;;;;;;;3.92;3.60;;;;;;;26.68;51.29;94891.63;4933636;29;20195;-73
2022/07/04 00:27:58;;;;;;;6.85;4.25;;;;;;;26.70;51.56;94892.22;4934071;29;20226;-74
2022/07/04 00:30:25;;;;;;;4.32;3.72;;;;;;;26.68;51.00;94892.44;4938437;29;20230;-84
2022/07/04 00:32:52;;;;;;;3.67;3.38;;;;;;;26.62;51.44;94882.88;4944736;29;20198;-84
2022/07/04 00:35:19;;;;;;;9.13;3.65;;;;;;;26.62;50.86;94879.47;4942108;29;20206;-84
2022/07/04 00:37:45;;;;;;;3.65;3.25;;;;;;;26.60;50.85;94876.25;4935732;29;20282;-85
2022/07/04 00:40:13;;;;;;;4.30;3.55;;;;;;;26.57;50.99;94879.38;4933928;29;20214;-83
2022/07/04 00:42:41;;;;;;;5.22;3.75;;;;;;;26.54;50.74;94875.38;4934255;29;20203;-81
2022/07/04 00:45:09;;;;;;;3.95;3.65;;;;;;;26.51;50.74;94876.66;4933786;29;20209;-85
2022/07/04 00:47:36;;;;;;;4.07;3.78;;;;;;;26.45;50.76;94874.94;4934049;29;20243;-83
2022/07/04 00:50:03;;;;;;;3.30;3.10;;;;;;;26.45;50.70;94876.75;4933236;29;20766;-85
2022/07/04 00:52:30;;;;;;;9.85;3.50;;;;;;;26.43;51.10;94876.19;4933870;29;20269;-80
2022/07/04 00:54:56;;;;;;;4.15;3.28;;;;;;;26.32;50.97;94859.44;4934871;29;20199;-84
2022/07/04 00:57:24;;;;;;;3.70;3.40;;;;;;;26.39;51.34;94873.22;4934907;29;20199;-85
2022/07/04 00:59:52;;;;;;;5.85;3.35;;;;;;;26.38;51.11;94876.06;4934131;29;20250;-85
2022/07/04 01:02:18;;;;;;;3.40;3.13;;;;;;;26.36;51.02;94875.50;4934070;29;20191;-79
2022/07/04 01:04:45;;;;;;;6.78;3.75;;;;;;;26.33;51.05;94879.38;4933594;29;20191;-83
2022/07/04 01:07:13;;;;;;;3.25;2.97;;;;;;;26.30;50.94;94872.00;4931982;29;20214;-74
2022/07/04 01:09:40;;;;;;;5.20;3.00;;;;;;;26.27;51.03;94867.19;4932848;29;20278;-74
2022/07/04 01:12:07;;;;;;;3.90;3.47;;;;;;;26.28;51.34;94866.94;4933035;29;20227;-74
2022/07/04 01:14:38;;;;;;;3.47;3.20;;;;;;;26.27;51.63;94875.06;4933242;29;20191;-75
2022/07/04 01:17:06;;;;;;;4.03;3.67;;;;;;;26.25;51.68;94871.84;4932676;29;20184;-75
2022/07/04 01:19:33;;;;;;;5.22;3.35;;;;;;;26.21;50.87;94870.75;4933026;29;20582;-74
2022/07/04 01:22:06;;;;;;;3.40;3.10;;;;;;;26.21;51.07;94882.03;4932556;29;20191;-74
2022/07/04 01:24:33;;;;;;;5.50;3.47;;;;;;;26.19;51.12;94883.28;4933075;29;20226;-74
2022/07/04 01:26:59;;;;;;;6.55;2.88;;;;;;;26.15;51.09;94884.75;4932675;29;20626;-75
2022/07/04 01:29:26;;;;;;;3.40;3.10;;;;;;;26.14;50.93;94872.69;4932720;29;20702;-75
2022/07/04 01:31:54;;;;;;;3.45;3.15;;;;;;;26.11;51.06;94873.94;4932573;29;20207;-74
2022/07/04 01:34:21;;;;;;;3.88;3.03;;;;;;;26.09;50.95;94862.09;4933067;29;20259;-74
2022/07/04 01:36:48;;;;;;;5.10;3.25;;;;;;;26.08;51.13;94863.94;4932486;29;20226;-74
2022/07/04 01:39:16;;;;;;;5.00;3.15;;;;;;;26.05;51.28;94872.25;4932711;29;20985;-74
2022/07/04 01:41:43;;;;;;;4.38;3.97;;;;;;;26.05;51.06;94876.69;4932598;29;20214;-75
2022/07/04 01:44:10;;;;;;;4.88;3.40;;;;;;;25.98;51.48;94869.72;4932867;29;20199;-74
2022/07/04 01:46:36;;;;;;;3.72;3.30;;;;;;;26.01;51.01;94878.97;4932811;29;20191;-74
2022/07/04 01:49:03;;;;;;;3.80;2.78;;;;;;;25.97;51.39;94873.38;4932631;29;20191;-75
2022/07/04 01:51:30;;;;;;;4.10;3.70;;;;;;;25.97;51.14;94891.72;4932626;29;20285;-75
2022/07/04 01:53:57;;;;;;;4.45;3.50;;;;;;;25.95;50.92;94885.09;4932499;29;20564;-75
2022/07/04 01:56:25;;;;;;;5.00;2.90;;;;;;;25.93;51.07;94880.09;4932866;29;20258;-76
2022/07/04 01:58:52;;;;;;;4.35;3.05;;;;;;;25.82;51.18;94867.81;4932548;29;20206;-75
2022/07/04 02:01:29;;;;;;;7.72;3.45;;;;;;;25.89;50.89;94881.59;4933153;29;20207;-84
2022/07/04 02:03:56;;;;;;;4.10;3.63;;;;;;;25.86;51.02;94882.03;4933448;29;20199;-85
2022/07/04 02:06:23;;;;;;;3.22;3.00;;;;;;;25.85;51.07;94888.31;4933670;29;20286;-85
2022/07/04 02:14:16;;;;;;;4.45;3.08;;;;;;;25.77;51.08;94894.69;4932005;29;20191;-80
2022/07/04 02:16:43;;;;;;;3.03;2.83;;;;;;;25.74;51.11;94886.47;4932406;29;20573;-85
2022/07/04 02:19:10;;;;;;;6.68;3.00;;;;;;;25.72;51.12;94884.06;4935293;29;20195;-83
2022/07/04 02:21:37;;;;;;;3.38;2.90;;;;;;;25.70;50.78;94890.56;4936452;29;20195;-80
2022/07/04 02:24:04;;;;;;;3.58;3.28;;;;;;;25.67;51.13;94891.00;4935816;29;20655;-84
2022/07/04 02:26:31;;;;;;;4.57;3.00;;;;;;;25.36;50.99;94843.16;4936697;29;20207;-85
2022/07/04 02:29:00;;;;;;;6.10;3.20;;;;;;;25.36;50.96;94845.78;4935956;29;20238;-85
2022/07/04 02:31:27;;;;;;;4.90;3.33;;;;;;;25.64;51.24;94892.25;4936148;29;20218;-85
2022/07/04 02:33:54;;;;;;;5.47;3.42;;;;;;;25.61;51.17;94895.34;4936164;29;20269;-84
2022/07/04 02:36:20;;;;;;;3.40;3.10;;;;;;;25.63;51.49;94893.28;4936349;29;20187;-86
2022/07/04 02:38:47;;;;;;;4.15;3.75;;;;;;;25.61;51.74;94891.94;4936048;29;20198;-85
2022/07/04 02:41:14;;;;;;;6.00;3.95;;;;;;;25.60;52.23;94900.78;4935855;29;20577;-86
2022/07/04 02:43:41;;;;;;;5.15;4.15;;;;;;;25.57;52.61;94896.81;4935591;29;20202;-84
2022/07/04 02:46:09;;;;;;;4.82;3.95;;;;;;;25.43;52.73;94880.50;4935663;29;20202;-83
2022/07/04 02:48:35;;;;;;;4.72;4.32;;;;;;;25.51;53.09;94898.50;4935743;29;20572;-86
2022/07/04 02:51:02;;;;;;;4.97;4.10;;;;;;;25.51;53.30;94906.34;4935516;29;20218;-86
2022/07/04 02:53:29;;;;;;;7.40;4.40;;;;;;;25.50;53.44;94907.38;4935600;29;20194;-84
2022/07/04 02:55:56;;;;;;;6.82;4.60;;;;;;;25.48;53.58;94900.78;4935096;29;20202;-83
2022/07/04 02:58:22;;;;;;;5.40;4.50;;;;;;;25.45;53.81;94915.13;4935576;29;20207;-85
2022/07/04 03:00:49;;;;;;;4.22;3.83;;;;;;;25.44;53.94;94910.91;4935177;29;20191;-84
2022/07/04 03:03:17;;;;;;;4.95;4.03;;;;;;;25.44;53.77;94915.34;4935709;29;20184;-86
2022/07/04 03:05:44;;;;;;;5.97;4.43;;;;;;;25.43;54.12;94916.34;4935469;29;20206;-86
2022/07/04 03:08:11;;;;;;;8.23;4.75;;;;;;;25.43;53.48;94916.34;4935630;29;20191;-85
2022/07/04 03:10:38;;;;;;;5.03;4.13;;;;;;;25.42;53.50;94926.03;4934900;29;20234;-84
2022/07/04 03:13:04;;;;;;;4.95;4.07;;;;;;;25.39;53.57;94915.22;4935099;29;20254;-80
2022/07/04 03:15:32;;;;;;;5.57;4.90;;;;;;;25.39;54.12;94923.06;4934740;29;20202;-83
2022/07/04 03:17:59;;;;;;;5.80;4.18;;;;;;;25.39;54.11;94923.06;4935088;29;20194;-84
2022/07/04 03:20:27;;;;;;;7.22;4.32;;;;;;;25.37;54.05;94922.50;4935537;29;20199;-84
2022/07/04 03:22:55;;;;;;;11.50;4.53;;;;;;;25.40;54.30;94929.91;4935102;29;20195;-83
2022/07/04 03:25:22;;;;;;;6.05;3.95;;;;;;;25.40;54.16;94925.47;4935278;29;20734;-83
2022/07/04 03:27:49;;;;;;;4.97;4.13;;;;;;;25.41;54.10;94932.31;4934775;29;20238;-85
2022/07/04 03:30:15;;;;;;;4.97;4.15;;;;;;;25.41;54.34;94921.81;4933906;29;20218;-84
2022/07/04 03:32:42;;;;;;;8.18;4.47;;;;;;;25.44;54.07;94928.44;4934487;29;20207;-84
2022/07/04 03:35:09;;;;;;;8.98;5.05;;;;;;;25.46;54.32;94924.56;4934841;29;20194;-83
2022/07/04 03:37:38;;;;;;;6.93;5.55;;;;;;;25.46;54.24;94923.78;4934542;29;20195;-86
2022/07/04 03:40:06;;;;;;;9.55;6.43;;;;;;;25.49;54.11;94928.56;4934793;29;20202;-79
2022/07/04 03:42:33;;;;;;;8.45;7.00;;;;;;;25.51;54.70;94929.13;4934972;29;20203;-84
2022/07/04 03:44:59;;;;;;;10.55;6.50;;;;;;;25.55;54.14;94932.09;4934484;29;20199;-85
2022/07/04 03:47:26;;;;;;;5.70;5.20;;;;;;;25.55;54.18;94930.28;4935255;29;20191;-78
2022/07/04 03:49:53;;;;;;;9.20;5.05;;;;;;;25.58;53.97;94919.34;4935383;29;20194;-85
2022/07/04 03:52:20;;;;;;;6.72;4.93;;;;;;;25.61;54.14;94918.13;4935051;29;20238;-84
2022/07/04 03:54:48;;;;;;;5.25;4.70;;;;;;;25.64;54.44;94923.69;4935376;29;20663;-82
2022/07/04 03:57:15;;;;;;;5.55;4.80;;;;;;;25.64;54.21;94913.22;4934695;29;20304;-83
2022/07/04 03:59:41;;;;;;;7.20;4.53;;;;;;;25.69;54.24;94912.53;4934556;29;20205;-85
2022/07/04 04:02:08;;;;;;;5.50;4.82;;;;;;;25.68;54.17;94910.94;4934531;29;20187;-83
2022/07/04 04:07:16;;;;;;;9.48;4.88;;;;;;;25.76;53.91;94914.06;4894351;29;20569;-85
2022/07/04 04:09:43;;;;;;;6.78;5.38;;;;;;;25.67;54.00;94896.25;4894902;29;20205;-85
2022/07/04 04:12:11;;;;;;;7.97;4.65;;;;;;;25.85;53.74;94918.97;4895028;29;20276;-85
2022/07/04 04:14:38;;;;;;;8.20;4.68;;;;;;;25.89;53.82;94912.25;4895728;29;20197;-84
2022/07/04 04:17:05;;;;;;;6.60;4.53;;;;;;;25.92;53.86;94917.03;4894763;29;20195;-82
2022/07/04 04:19:32;;;;;;;6.50;5.10;;;;;;;25.97;53.72;94919.78;4894722;29;20820;-84
2022/07/04 04:21:59;;;;;;;9.77;5.03;;;;;;;26.00;53.88;94916.69;4894498;29;20200;-84
2022/07/04 04:24:26;;;;;;;13.48;5.65;;;;;;;26.06;53.71;94918.41;4894450;29;20219;-83
2022/07/04 04:26:52;;;;;;;6.70;4.70;;;;;;;26.04;53.40;94920.47;4894443;29;20192;-83
2022/07/04 04:29:20;;;;;;;9.90;4.72;;;;;;;26.14;53.42;94927.75;4894412;29;20197;-83
2022/07/04 04:31:48;;;;;;;7.13;4.40;;;;;;;26.19;52.98;94935.72;4894701;29;20700;-83
2022/07/04 04:34:14;;;;;;;5.88;4.45;;;;;;;26.23;52.28;94931.63;4893784;29;20197;-80
2022/07/04 04:36:41;;;;;;;12.75;4.18;;;;;;;26.25;51.96;94933.00;4894818;29;20197;-84
2022/07/04 04:39:08;;;;;;;7.55;5.32;;;;;;;26.30;51.84;94931.50;4894278;29;20636;-81
2022/07/04 04:41:35;;;;;;;5.57;4.55;;;;;;;26.35;51.44;94942.91;4894189;29;20726;-87
2022/07/04 04:44:02;;;;;;;7.28;4.47;;;;;;;26.38;51.08;94934.56;4909570;29;20214;-84
2022/07/04 04:46:30;;;;;;;5.53;4.43;;;;;;;26.43;51.20;94936.50;4933638;29;20202;-86
2022/07/04 04:48:57;;;;;;;4.55;3.92;;;;;;;26.46;51.01;94934.22;4934659;29;20191;-85
2022/07/04 04:51:24;;;;;;;9.95;4.40;;;;;;;26.50;50.34;94939.81;4933878;29;20226;-85
2022/07/04 04:53:50;;;;;;;6.07;4.15;;;;;;;26.54;50.42;94930.47;4934337;29;20544;-85
2022/07/04 04:56:17;;;;;;;6.88;4.25;;;;;;;26.59;50.44;94935.81;4933738;29;20206;-86
2022/07/04 04:58:44;;;;;;;6.03;4.35;;;;;;;26.62;49.82;94929.31;4934575;29;20202;-86
2022/07/04 05:01:11;;;;;;;8.93;3.90;;;;;;;26.70;49.92;94932.38;4933163;29;20203;-85
2022/07/04 05:03:39;;;;;;;8.05;4.50;;;;;;;26.78;50.07;94931.22;4934051;29;20217;-84
2022/07/04 05:06:07;;;;;;;4.85;3.75;;;;;;;26.76;49.99;94923.56;4934378;29;20674;-84
2022/07/04 05:08:33;;;;;;;7.50;4.57;;;;;;;26.75;49.53;94916.72;4934086;29;20285;-82
2022/07/04 05:11:00;;;;;;;7.32;4.00;;;;;;;26.92;49.78;94935.16;4934038;29;20223;-86
2022/07/04 05:13:27;;;;;;;6.25;4.63;;;;;;;26.98;49.43;94930.78;4933773;29;20638;-83
2022/07/04 05:15:54;;;;;;;8.18;4.72;;;;;;;27.10;49.60;94923.69;4937409;29;20195;-85
2022/07/04 05:18:20;;;;;;;12.40;3.70;;;;;;;27.45;50.31;94925.34;4937460;29;20195;-85
2022/07/04 05:20:49;;;;;;;5.78;3.80;;;;;;;27.84;50.43;94930.75;4935334;29;20195;-86
2022/07/04 05:23:15;;;;;;;5.15;3.63;;;;;;;28.29;50.22;94933.25;4934694;29;20198;-82
2022/07/04 05:25:42;;;;;;;5.05;3.75;;;;;;;28.79;49.80;94932.31;4934874;29;20190;-87
2022/07/04 05:28:09;;;;;;;10.30;4.60;;;;;;;29.34;48.43;94933.19;4933848;29;20233;-85
2022/07/04 05:30:36;;;;;;;5.70;4.13;;;;;;;29.91;47.49;94938.72;4934177;29;20578;-82
2022/07/04 05:33:02;;;;;;;4.13;3.70;;;;;;;30.51;46.20;94930.69;4933602;29;20199;-87
2022/07/04 05:35:32;;;;;;;4.97;4.45;;;;;;;31.12;45.00;94934.34;4934212;29;20195;-85
2022/07/04 05:38:00;;;;;;;4.38;3.88;;;;;;;31.65;43.89;94926.25;4933817;29;20187;-83
2022/07/04 05:40:27;;;;;;;4.28;3.80;;;;;;;32.32;42.65;94932.31;4932944;29;20203;-79
2022/07/04 05:42:54;;;;;;;5.65;3.97;;;;;;;32.91;41.88;94937.75;4933801;29;20203;-84
2022/07/04 05:45:21;;;;;;;6.13;4.20;;;;;;;33.49;40.57;94945.13;4933870;29;20217;-85
2022/07/04 05:47:48;;;;;;;7.03;4.18;;;;;;;34.00;39.34;94944.00;4933740;29;20195;-85
2022/07/04 05:50:17;;;;;;;5.55;3.58;;;;;;;34.50;38.27;94937.41;4933488;29;20195;-83
2022/07/04 05:52:44;;;;;;;7.57;4.20;;;;;;;35.00;37.09;94943.22;4934307;29;20219;-75
2022/07/04 05:55:12;;;;;;;6.55;3.40;;;;;;;35.44;36.72;94937.53;4936958;29;20202;-82
2022/07/04 05:57:39;;;;;;;9.23;3.97;;;;;;;35.89;35.73;94934.50;4937338;29;20210;-84
2022/07/04 06:00:07;;;;;;;7.60;3.47;;;;;;;36.34;35.32;94943.59;4937242;29;20205;-78
2022/07/04 06:02:34;;;;;;;7.20;4.20;;;;;;;36.75;34.55;94944.75;4937898;29;20187;-83
2022/07/04 06:05:00;;;;;;;6.72;4.35;;;;;;;37.14;34.04;94945.03;4937185;29;20577;-84
2022/07/04 06:07:27;;;;;;;5.47;3.78;;;;;;;37.51;33.53;94947.69;4936768;29;20194;-86
2022/07/04 06:09:54;;;;;;;3.53;3.22;;;;;;;37.81;32.99;94941.66;4936936;29;20695;-81
2022/07/04 06:12:22;;;;;;;6.13;4.15;;;;;;;38.18;32.31;94947.72;4936607;29;20595;-84
2022/07/04 06:14:49;;;;;;;7.88;3.63;;;;;;;38.47;32.00;94943.78;4937088;29;20202;-85
2022/07/04 06:17:16;;;;;;;8.13;4.13;;;;;;;38.82;31.58;94953.56;4936949;29;20187;-84
2022/07/04 06:19:43;;;;;;;7.28;3.97;;;;;;;39.13;31.40;94950.78;4935979;29;20243;-86
2022/07/04 06:22:09;;;;;;;7.40;3.95;;;;;;;39.45;30.88;94946.09;4936981;29;20555;-86
2022/07/04 06:24:36;;;;;;;4.05;3.47;;;;;;;39.76;30.74;94945.16;4936668;29;20214;-86
2022/07/04 06:27:04;;;;;;;4.30;3.67;;;;;;;40.06;30.42;94940.72;4937127;29;20199;-86
2022/07/04 06:29:32;;;;;;;6.15;3.42;;;;;;;40.35;30.02;94937.34;4936993;29;20676;-84
2022/07/04 06:31:59;;;;;;;4.15;3.35;;;;;;;40.56;29.21;94929.41;4936400;29;20218;-79
2022/07/04 06:37:11;;;;;;;7.80;3.58;;;;;;;41.00;28.95;94936.13;4939388;29;20783;-81
2022/07/04 06:39:38;;;;;;;6.75;3.53;;;;;;;41.20;28.01;94931.13;4936725;29;20570;-84
2022/07/04 06:42:05;;;;;;;5.43;4.07;;;;;;;41.44;27.95;94943.91;4936537;29;20360;-83
2022/07/04 06:44:33;;;;;;;10.02;3.55;;;;;;;41.63;27.78;94946.13;4936803;29;20199;-84
2022/07/04 06:47:00;;;;;;;5.80;3.78;;;;;;;41.77;27.53;94935.91;4938043;29;20194;-78
2022/07/04 06:49:27;;;;;;;3.85;3.05;;;;;;;42.00;27.29;94939.78;4938309;29;20195;-82
2022/07/04 06:51:54;;;;;;;8.70;3.60;;;;;;;42.15;27.40;94940.31;4938232;29;20222;-82
2022/07/04 06:54:21;;;;;;;5.95;3.45;;;;;;;42.26;26.58;94939.53;4938485;29;20249;-83
2022/07/04 06:56:49;;;;;;;5.57;3.40;;;;;;;42.39;26.18;94945.72;4936975;29;20201;-84
2022/07/04 06:59:15;;;;;;;5.93;3.38;;;;;;;42.54;26.12;94941.63;4936207;29;20289;-85
2022/07/04 07:01:44;;;;;;;3.85;3.38;;;;;;;42.68;26.50;94942.09;4935437;29;20647;-86
2022/07/04 07:04:11;;;;;;;4.13;3.38;;;;;;;42.75;26.26;94930.75;4936515;29;20198;-83
2022/07/04 07:06:38;;;;;;;3.50;3.15;;;;;;;42.91;25.99;94928.94;4935926;29;20271;-84
2022/07/04 07:09:04;;;;;;;4.63;3.55;;;;;;;43.03;25.89;94933.53;4936021;29;20198;-87
2022/07/04 07:11:31;;;;;;;3.47;3.17;;;;;;;43.15;25.97;94930.06;4935656;29;20234;-86
2022/07/04 07:13:58;;;;;;;8.95;3.08;;;;;;;43.24;26.17;94928.03;4935924;29;20746;-87
2022/07/04 07:16:25;;;;;;;5.95;3.10;;;;;;;43.29;25.72;94920.50;4936461;29;20193;-80
2022/07/04 07:18:54;;;;;;;5.15;3.03;;;;;;;43.40;25.82;94928.09;4935898;29;20289;-85
2022/07/04 07:21:20;;;;;;;4.13;3.00;;;;;;;43.47;25.67;94922.94;4935584;29;20194;-77
2022/07/04 07:23:49;;;;;;;3.53;3.22;;;;;;;43.52;25.28;94912.69;4936027;29;20721;-83
2022/07/04 07:26:16;;;;;;;3.08;2.80;;;;;;;43.58;25.18;94924.81;4936331;29;20194;-80
2022/07/04 07:28:43;;;;;;;4.90;3.30;;;;;;;43.63;25.01;94915.69;4935125;29;20736;-87
2022/07/04 07:31:10;;;;;;;4.47;3.17;;;;;;;43.70;25.28;94915.91;4935590;29;20199;-76
2022/07/04 07:33:36;;;;;;;6.13;3.05;;;;;;;43.75;25.37;94918.34;4935173;29;20721;-83
2022/07/04 07:36:05;;;;;;;2.95;2.65;;;;;;;43.78;25.07;94906.84;4936766;29;20199;-86
2022/07/04 07:38:32;;;;;;;5.68;3.15;;;;;;;43.89;24.96;94914.47;4935359;29;20183;-86
2022/07/04 07:40:59;;;;;;;3.13;2.85;;;;;;;43.92;24.86;94916.50;4934869;29;20199;-85
2022/07/04 07:43:28;;;;;;;3.30;2.85;;;;;;;43.87;24.48;94898.63;4935224;29;20196;-82
2022/07/04 07:45:56;;;;;;;3.80;3.20;;;;;;;43.98;24.68;94923.97;4937459;29;20190;-84
2022/07/04 07:48:22;;;;;;;3.17;2.88;;;;;;;44.01;24.40;94912.50;4939913;29;20198;-83
2022/07/04 07:50:49;;;;;;;5.10;3.00;;;;;;;43.98;24.78;94905.09;4935951;29;20198;-86
2022/07/04 07:53:18;;;;;;;3.92;2.85;;;;;;;43.98;24.63;94907.78;4939362;29;20229;-87
2022/07/04 07:55:45;;;;;;;5.15;3.10;;;;;;;43.96;24.55;94911.97;4940414;29;20204;-86
2022/07/04 07:58:11;;;;;;;5.20;2.92;;;;;;;43.91;24.69;94906.81;4936142;29;20198;-82
2022/07/04 08:00:38;;;;;;;2.97;2.78;;;;;;;43.84;24.42;94904.75;4936636;29;20194;-85
2022/07/04 08:05:50;;;;;;;3.28;3.08;;;;;;;43.76;24.83;94892.16;4944662;29;20229;-75
2022/07/04 08:08:18;;;;;;;3.92;2.90;;;;;;;43.70;24.89;94901.63;4944328;29;20183;-78
2022/07/04 08:10:45;;;;;;;2.97;2.78;;;;;;;43.61;24.90;94898.28;4941697;29;20198;-77
2022/07/04 08:13:12;;;;;;;4.00;3.15;;;;;;;43.53;25.22;94900.81;4944156;29;20211;-85
2022/07/04 08:15:38;;;;;;;4.50;3.22;;;;;;;43.47;25.05;94896.78;4942157;29;20201;-84
2022/07/04 08:18:05;;;;;;;3.65;2.90;;;;;;;43.41;24.68;94895.44;4952696;29;20198;-77
2022/07/04 08:20:32;;;;;;;5.50;3.20;;;;;;;43.26;25.26;94888.06;4951184;29;20191;-86
2022/07/04 08:22:59;;;;;;;3.58;3.30;;;;;;;43.24;25.51;94890.34;4950522;29;20206;-80
2022/07/04 08:25:28;;;;;;;6.15;2.97;;;;;;;43.15;25.24;94905.84;4930058;29;20199;-88
2022/07/04 08:27:55;;;;;;;6.47;3.30;;;;;;;43.07;25.36;94894.06;4938690;29;20289;-82
2022/07/04 08:30:22;;;;;;;5.07;2.88;;;;;;;42.89;25.97;94882.75;4938186;29;20187;-87
2022/07/04 08:32:49;;;;;;;3.13;2.65;;;;;;;42.87;25.49;94894.97;4940159;29;20237;-84
2022/07/04 08:35:15;;;;;;;3.38;3.08;;;;;;;42.76;25.67;94890.06;4935618;29;20194;-85
2022/07/04 08:37:42;;;;;;;3.50;3.20;;;;;;;42.68;25.93;94884.81;4936691;29;20190;-88
2022/07/04 08:40:10;;;;;;;3.50;3.20;;;;;;;42.57;25.94;94885.22;4941033;29;20257;-86
2022/07/04 08:42:40;;;;;;;4.22;2.88;;;;;;;42.45;25.97;94876.38;4945542;29;20197;-88
2022/07/04 08:45:08;;;;;;;5.88;3.03;;;;;;;42.38;26.20;94886.91;4941933;29;20201;-85
2022/07/04 08:47:38;;;;;;;3.67;3.17;;;;;;;42.26;26.17;94879.63;4943398;29;20202;-84
2022/07/04 08:50:11;;;;;;;4.18;3.30;;;;;;;42.13;26.29;94875.31;4940452;29;20190;-85
2022/07/04 08:52:39;;;;;;;4.35;3.08;;;;;;;42.02;26.61;94877.66;4935988;29;20313;-85
2022/07/04 09:00:41;;;;;;;3.20;3.00;;;;;;;41.59;26.94;94876.19;4936178;29;20193;-81
2022/07/04 09:03:09;;;;;;;4.72;3.50;;;;;;;41.46;27.20;94871.88;4935204;29;20195;-84
2022/07/04 09:05:37;;;;;;;3.55;3.20;;;;;;;41.31;27.30;94863.28;4934861;29;20666;-86
2022/07/04 09:08:05;;;;;;;3.42;3.22;;;;;;;41.16;27.57;94873.84;4934559;29;20202;-82
2022/07/04 09:10:32;;;;;;;5.45;3.25;;;;;;;41.02;27.31;94868.72;4934431;29;20195;-86
2022/07/04 09:13:04;;;;;;;5.32;3.30;;;;;;;40.91;27.59;94868.31;4935538;29;20214;-84
2022/07/04 09:15:31;;;;;;;3.80;3.50;;;;;;;40.78;28.11;94869.34;4937526;29;20219;-81
2022/07/04 09:17:58;;;;;;;4.70;3.60;;;;;;;40.55;27.97;94853.53;4937362;29;20199;-85
2022/07/04 09:20:25;;;;;;;6.47;3.70;;;;;;;40.34;27.96;94852.69;4934528;29;20191;-86
2022/07/04 09:22:54;;;;;;;3.72;3.10;;;;;;;40.29;28.21;94867.06;4934501;29;20663;-84
2022/07/04 09:25:22;;;;;;;5.20;3.65;;;;;;;40.14;28.60;94864.91;4934109;29;20262;-86
2022/07/04 09:27:50;;;;;;;3.67;3.35;;;;;;;39.96;28.37;94866.81;4934821;29;20246;-81
2022/07/04 09:30:20;;;;;;;4.47;4.07;;;;;;;39.80;28.85;94863.06;4939520;29;20647;-85
2022/07/04 09:32:50;;;;;;;5.13;3.78;;;;;;;39.63;28.94;94859.28;4939078;29;20215;-86
2022/07/04 09:35:20;;;;;;;5.85;3.65;;;;;;;39.53;29.13;94859.66;4938442;29;20195;-85
2022/07/04 09:37:48;;;;;;;3.90;3.60;;;;;;;39.37;29.24;94864.69;4938958;29;20195;-85
2022/07/04 09:40:25;;;;;;;3.90;3.60;;;;;;;39.23;29.12;94850.69;4939244;29;20213;-87
2022/07/04 09:42:52;;;;;;;5.07;3.55;;;;;;;39.10;29.35;94854.28;4938803;29;20194;-86
2022/07/04 09:45:23;;;;;;;4.40;3.80;;;;;;;38.95;29.72;94844.03;4938854;29;20191;-83
2022/07/04 09:47:51;;;;;;;4.95;3.78;;;;;;;38.80;29.87;94847.97;4938333;29;20190;-84
2022/07/04 09:50:20;;;;;;;4.35;3.95;;;;;;;38.65;30.00;94841.16;4937632;29;20221;-87
2022/07/04 09:52:49;;;;;;;4.07;3.45;;;;;;;38.52;30.06;94850.09;4938619;29;20249;-87
2022/07/04 09:55:27;;;;;;;5.13;3.70;;;;;;;38.36;30.13;94849.75;4940339;29;20194;-86
2022/07/04 09:57:56;;;;;;;5.47;3.60;;;;;;;38.20;30.45;94852.00;4939080;29;20191;-87
2022/07/04 10:00:27;;;;;;;5.00;3.67;;;;;;;38.05;30.62;94845.19;4937854;29;20203;-86
2022/07/04 10:02:55;;;;;;;4.07;3.63;;;;;;;37.91;30.84;94847.16;4937882;29;20675;-86
2022/07/04 10:05:25;;;;;;;6.28;3.65;;;;;;;37.79;30.99;94844.28;4937078;29;20195;-84
2022/07/04 10:07:52;;;;;;;4.38;3.97;;;;;;;37.63;31.10;94833.19;4937410;29;20250;-87
2022/07/04 10:10:28;;;;;;;6.60;4.15;;;;;;;37.51;31.22;94849.75;4937777;29;20217;-85
2022/07/04 10:12:57;;;;;;;4.63;3.92;;;;;;;37.40;31.36;94848.44;4938579;29;20221;-85
2022/07/04 10:15:26;;;;;;;4.40;4.00;;;;;;;37.33;31.44;94850.69;4937158;29;20203;-82
2022/07/04 10:17:52;;;;;;;4.72;3.72;;;;;;;37.25;31.65;94846.06;4937656;29;20191;-86
2022/07/04 10:20:19;;;;;;;3.97;3.67;;;;;;;37.05;31.68;94839.31;4937220;29;20199;-81
2022/07/04 10:22:47;;;;;;;4.18;3.88;;;;;;;36.99;31.96;94845.88;4937225;29;20203;-81
2022/07/04 10:25:14;;;;;;;6.07;4.10;;;;;;;36.86;32.17;94836.78;4937340;29;20183;-82
2022/07/04 10:27:41;;;;;;;5.78;4.20;;;;;;;36.80;32.11;94840.66;4936884;29;20238;-85
2022/07/04 10:30:12;;;;;;;5.57;4.18;;;;;;;36.71;32.40;94831.81;4937409;29;20198;-83
2022/07/04 10:32:43;;;;;;;4.85;4.43;;;;;;;36.64;32.36;94838.31;4936014;29;20584;-84
2022/07/04 10:35:15;;;;;;;5.68;4.10;;;;;;;36.56;32.55;94835.56;4937101;29;20199;-84
2022/07/04 10:38:02;;;;;;;4.95;3.95;;;;;;;36.50;32.80;94834.09;4937076;29;20203;-86
2022/07/04 10:40:43;;;;;;;5.53;4.15;;;;;;;36.40;32.84;94822.53;4937133;29;20199;-82
2022/07/04 10:44:00;;;;;;;4.85;4.45;;;;;;;36.33;32.80;94822.16;4937041;29;20218;-84
2022/07/04 10:46:49;;;;;;;5.22;4.72;;;;;;;36.26;32.84;94818.28;4936779;29;20250;-85
2022/07/04 10:49:26;;;;;;;4.38;4.07;;;;;;;36.19;33.16;94818.69;4937004;29;20195;-84
2022/07/04 10:51:54;;;;;;;4.85;4.35;;;;;;;36.11;33.29;94814.84;4937152;29;20246;-85
2022/07/04 10:54:29;;;;;;;5.43;4.65;;;;;;;36.09;33.38;94813.56;4936864;29;20387;-82
2022/07/04 10:56:57;;;;;;;6.85;4.63;;;;;;;36.05;33.40;94817.91;4936543;29;20281;-87
2022/07/04 10:59:27;;;;;;;5.25;4.47;;;;;;;36.01;33.32;94808.91;4936444;29;20191;-85
2022/07/04 11:02:23;;;;;;;4.75;4.35;;;;;;;35.97;33.49;94794.63;4936483;29;20199;-84
2022/07/04 11:04:55;;;;;;;5.65;4.43;;;;;;;35.90;33.37;94797.66;4928007;29;20249;-86
2022/07/04 11:07:24;;;;;;;4.18;3.75;;;;;;;35.86;33.75;94786.81;4936202;29;20333;-86
2022/07/04 11:10:22;;;;;;;5.00;4.03;;;;;;;35.80;33.75;94782.66;4937393;29;20184;-86
2022/07/04 11:13:20;;;;;;;4.45;4.15;;;;;;;35.76;33.77;94783.56;4858708;29;20232;-86
2022/07/04 11:16:07;;;;;;;4.38;3.95;;;;;;;35.71;33.92;94781.78;4858888;29;20200;-84
2022/07/04 11:18:41;;;;;;;4.75;4.15;;;;;;;35.65;34.07;94786.38;4858283;29;20201;-85
2022/07/04 11:21:21;;;;;;;5.43;4.70;;;;;;;35.58;34.12;94786.00;4858876;29;20322;-85
2022/07/04 11:23:55;;;;;;;6.38;4.72;;;;;;;35.59;34.09;94778.78;4858354;29;20253;-82
2022/07/04 11:26:23;;;;;;;4.60;4.03;;;;;;;35.51;34.21;94796.22;4858325;29;20202;-84
2022/07/04 11:28:50;;;;;;;4.93;4.35;;;;;;;35.42;34.27;94784.66;4858741;29;20229;-85
2022/07/04 11:31:17;;;;;;;5.45;4.55;;;;;;;35.41;34.26;94789.19;4858562;29;20206;-85
2022/07/04 11:33:46;;;;;;;4.88;4.47;;;;;;;35.36;34.58;94783.91;4859082;29;20282;-84
2022/07/04 11:36:16;;;;;;;6.68;5.25;;;;;;;35.35;34.67;94778.91;4859387;29;20198;-84
2022/07/04 11:39:03;;;;;;;5.03;4.57;;;;;;;35.31;34.52;94784.00;4859167;29;20261;-85
2022/07/04 11:47:03;;;;;;;5.35;4.95;;;;;;;35.13;34.97;94769.69;4858995;29;20233;-85
2022/07/04 11:49:30;;;;;;;5.03;4.60;;;;;;;35.10;34.91;94764.94;4891885;29;20621;-87
2022/07/04 11:51:57;;;;;;;5.55;4.70;;;;;;;35.09;35.05;94752.72;4935760;29;20214;-85
2022/07/04 11:54:25;;;;;;;5.32;4.93;;;;;;;35.10;34.75;94745.53;4935512;29;20725;-86
2022/07/04 11:56:52;;;;;;;5.00;4.60;;;;;;;35.11;34.82;94741.81;4935670;29;20194;-85
2022/07/04 11:59:19;;;;;;;5.00;4.50;;;;;;;35.12;34.95;94746.06;4935446;29;20689;-85
2022/07/04 12:01:46;;;;;;;5.10;4.70;;;;;;;35.10;35.15;94738.34;4936077;29;20255;-82
2022/07/04 12:04:18;;;;;;;5.05;4.65;;;;;;;35.06;35.10;94737.38;4935588;29;20575;-82